• Join FlightAware (Why Join?)
  • Login
  • US Flag 
05:42AM EDT


 

Airport Tracker/Info


-or-


 

Live Flight TrackerFlight Track Log ✈ SWA2169 ✈ 09-Dec-2013 ✈ KPHX - KELP

Flight Track Log - Related Links

Times and Time Zones

All times are in EST time to prevent confusion due to time zone crossing. See the SWA2169 flight status page for this flight to view local times or setup timezone preferences in your user account.

Time Position Orientation Groundspeed Altitude Reporting Facility
EST Latitude Longitude Course Direction KTS MPH feet Rate Location/Type
04:18PM 33.4333 -112.0333 253° West 259 298 2,000  Level Phoenix TRACON
04:19PM 33.4167 -112.1000 253° West 216 249 4,300 2,520 Climbing Phoenix TRACON
04:20PM 33.3833 -112.1667 239° Southwest 240 276 7,400 1,800 Climbing Phoenix TRACON
04:21PM 33.3167 -112.1667 180° South 287 330 8,000 1,140 Climbing Phoenix TRACON
04:22PM 33.2500 -112.1000 140° Southeast 293 337 9,900 2,220 Climbing Phoenix TRACON
04:23PM 33.2167 -112.0167 116° Southeast 330 380 12,500 3,060 Climbing Phoenix TRACON
04:24PM 33.2000 -111.9000 100° East 362 417 15,800 3,060 Climbing Phoenix TRACON
04:24PM 33.1814 -111.8478 113° Southeast 364 419 17,200 2,700 Climbing Albuquerque Center
04:25PM 33.1506 -111.7244 107° East 385 443 20,000 1,800 Climbing Albuquerque Center
04:26PM 33.1225 -111.5956 105° East 400 460 21,000 1,260 Climbing Albuquerque Center
04:27PM 33.0942 -111.4606 104° East 418 481 22,700 1,740 Climbing Albuquerque Center
04:28PM 33.0672 -111.3150 102° East 448 516 24,600 2,220 Climbing Albuquerque Center
04:29PM 33.0364 -111.1281 101° East 477 549 27,400 2,280 Climbing Albuquerque Center
04:30PM 33.0119 -110.9689 100° East 488 562 29,300 1,560 Climbing Albuquerque Center
04:31PM 32.9894 -110.8011 99° East 506 582 30,700 1,380 Climbing Albuquerque Center
04:33PM 32.9667 -110.6144 98° East 526 605 32,200 1,080 Climbing Albuquerque Center
04:34PM 32.9436 -110.4369 99° East 539 620 33,000 1,320 Climbing Albuquerque Center
04:35PM 32.9156 -110.2642 101° East 537 618 35,000 960 Climbing Albuquerque Center
04:36PM 32.8747 -110.0992 106° East 526 605 35,000  Level Albuquerque Center
04:37PM 32.8367 -109.9328 105° East 524 603 35,000  Level Albuquerque Center
04:38PM 32.7992 -109.7694 105° East 519 597 35,000  Level Albuquerque Center
04:39PM 32.7542 -109.5750 105° East 512 589 35,000  Level Albuquerque Center
04:40PM 32.7150 -109.4128 106° East 515 593 35,000  Level Albuquerque Center
04:41PM 32.6756 -109.2483 106° East 521 600 35,000  Level Albuquerque Center
04:42PM 32.6367 -109.0853 106° East 521 600 35,000  Level Albuquerque Center
04:43PM 32.5978 -108.9219 106° East 521 600 35,000 -360 Level Albuquerque Center
04:44PM 32.5514 -108.7269 106° East 519 597 34,300 -1,020 Descending Albuquerque Center
04:45PM 32.5122 -108.5639 106° East 519 597 33,000 -660 Descending Albuquerque Center
04:46PM 32.4725 -108.4047 106° East 511 588 33,000  Level Albuquerque Center
04:47PM 32.4306 -108.2356 106° East 501 577 33,000 -180 Level Albuquerque Center
04:48PM 32.3928 -108.0783 106° East 500 575 32,700 -1,740 Descending Albuquerque Center
04:49PM 32.3525 -107.9200 107° East 504 580 29,500 -3,000 Descending Albuquerque Center
04:50PM 32.3119 -107.7556 106° East 517 595 26,600 -2,580 Descending Albuquerque Center
04:51PM 32.2728 -107.5953 106° East 516 594 24,300 -2,400 Descending Albuquerque Center
04:52PM 32.2306 -107.4208 106° East 498 573 21,800 -2,280 Descending Albuquerque Center
04:53PM 32.1950 -107.2711 106° East 482 555 19,600 -2,220 Descending Albuquerque Center
04:54PM 32.1686 -107.1439 104° East 453 521 17,800 -2,040 Descending Albuquerque Center
04:54PM 32.1619 -107.1225 110° East 460 529 17,500 -2,100 Descending Albuquerque Center
04:55PM 32.1289 -106.9906 106° East 419 482 15,300 -2,220 Descending Albuquerque Center
04:55PM 32.1300 -106.9942 290° West 430 495 15,300 -2,220 Level Albuquerque Center
04:56PM 32.1108 -106.9125 105° East 405 466 14,000 -1,980 Descending Albuquerque Center
04:56PM 32.1003 -106.8675 105° East 414 476 13,300 -1,920 Descending Albuquerque Center
04:57PM 32.0794 -106.7947 109° East 379 436 12,100 -1,860 Descending Albuquerque Center
04:57PM 32.0714 -106.7500 102° East 388 447 11,400 -1,800 Descending Albuquerque Center
04:58PM 32.0506 -106.6692 107° East 363 418 10,300 -1,560 Descending Albuquerque Center
04:58PM 32.0383 -106.6158 105° East 360 414 9,800 -960 Descending Albuquerque Center
04:59PM 32.0172 -106.5297 106° East 298 343 9,000 -900 Descending Albuquerque Center
04:59PM 32.0183 -106.5206 82° East 312 359 8,900 -240 Descending Albuquerque Center
05:00PM 32.0200 -106.4389 89° East 263 303 8,800 -300 Descending Albuquerque Center
05:00PM 32.0208 -106.4319 82° East 274 315 8,600 -360 Descending Albuquerque Center
05:01PM 32.0225 -106.3581 88° East 261 300 8,500 -240 Descending Albuquerque Center
05:01PM 32.0231 -106.3458 87° East 266 306 8,400 -540 Descending Albuquerque Center
05:02PM 32.0228 -106.2653 90° East 271 312 7,900 -600 Descending Albuquerque Center
05:02PM 32.0258 -106.2597 57° Northeast 265 305 7,800 -540 Descending Albuquerque Center
05:03PM 32.0039 -106.2200 123° Southeast 252 290 7,600 -420 Descending Albuquerque Center
05:03PM 31.9889 -106.1928 123° Southeast 240 276 7,400 -840 Descending Albuquerque Center
05:04PM 31.9556 -106.1894 175° South 192 221 6,800 -1,260 Descending Albuquerque Center
05:04PM 31.9347 -106.2147 226° Southwest 185 213 6,100 -840 Descending Albuquerque Center
05:05PM 31.9172 -106.2367 227° Southwest 165 190 5,900 -240 Descending Albuquerque Center
05:05PM 31.9014 -106.2592 230° Southwest 171 197 5,900  Level Albuquerque Center
05:06PM 31.8886 -106.2789 233° Southwest 164 189 5,900 -540 Level Albuquerque Center
05:06PM 31.8731 -106.2986 227° Southwest 166 191 5,400 -900 Descending Albuquerque Center
05:07PM 31.8611 -106.3156 230° Southwest 161 185 5,100 -780 Descending Albuquerque Center
05:08PM 31.8458 -106.3367 230° Southwest 156 180 4,600 -720 Descending Albuquerque Center
05:08PM 31.8342 -106.3550 233° Southwest 147 169 4,300 -840 Descending Albuquerque Center
05:09PM 31.8175 -106.3758 227° Southwest 147 169 3,800 -840 Descending Albuquerque Center
05:11PM 31.8072 -106.3764 187° South  Level Estimated
05:18PM 31.8072 -106.3764 187° South  Level Estimated